createdAt,value
2019-03-15T00:00:07.077Z,0.00
2019-03-15T00:01:07.041Z,0.00
2019-03-15T00:02:07.012Z,0.00
2019-03-15T00:03:06.975Z,0.00
2019-03-15T00:04:06.927Z,0.00
2019-03-15T00:05:06.896Z,0.00
2019-03-15T00:06:06.861Z,0.00
2019-03-15T00:07:06.830Z,0.00
2019-03-15T00:08:06.786Z,0.00
2019-03-15T00:09:06.751Z,0.00
2019-03-15T00:10:06.718Z,0.00
2019-03-15T00:11:06.678Z,0.00
2019-03-15T00:12:06.646Z,0.00
2019-03-15T00:13:06.603Z,0.00
2019-03-15T00:14:06.572Z,0.00
2019-03-15T00:15:06.540Z,0.00
2019-03-15T00:16:06.498Z,0.00
2019-03-15T00:17:06.461Z,0.00
2019-03-15T00:18:06.432Z,0.00
2019-03-15T00:19:06.396Z,0.00
2019-03-15T00:20:06.363Z,0.00
2019-03-15T00:21:06.318Z,0.00
2019-03-15T00:22:06.281Z,0.00
2019-03-15T00:23:06.254Z,0.00
2019-03-15T00:24:06.208Z,0.00
2019-03-15T00:25:06.177Z,0.00
2019-03-15T00:26:06.144Z,0.00
2019-03-15T00:27:06.107Z,0.00
2019-03-15T00:28:06.069Z,0.00
2019-03-15T00:29:06.034Z,0.00
2019-03-15T00:30:06.179Z,0.00
2019-03-15T00:31:05.973Z,0.00
2019-03-15T00:32:05.942Z,0.00
2019-03-15T00:33:05.887Z,0.00
2019-03-15T00:34:05.853Z,0.00
2019-03-15T00:35:05.985Z,0.00
2019-03-15T00:36:05.774Z,0.00
2019-03-15T00:37:05.745Z,0.00
2019-03-15T00:38:05.719Z,0.00
2019-03-15T00:39:05.674Z,0.00
2019-03-15T00:40:05.634Z,0.00
2019-03-15T00:41:05.594Z,0.00
2019-03-15T00:42:05.568Z,0.00
2019-03-15T00:43:05.527Z,0.00
2019-03-15T00:44:05.497Z,0.00
2019-03-15T00:45:08.161Z,0.00
2019-03-15T00:46:05.420Z,0.00
2019-03-15T00:47:05.373Z,0.00
2019-03-15T00:48:05.334Z,0.00
2019-03-15T00:49:05.311Z,0.00
2019-03-15T00:50:05.268Z,0.00
2019-03-15T00:51:05.339Z,0.00
2019-03-15T00:52:05.209Z,0.00
2019-03-15T00:53:05.160Z,0.00
2019-03-15T00:54:05.127Z,0.00
2019-03-15T00:55:05.101Z,0.00
2019-03-15T00:56:05.060Z,0.00
2019-03-15T00:57:05.031Z,0.00
2019-03-15T00:58:04.993Z,0.00
2019-03-15T00:59:04.939Z,0.00
2019-03-15T01:00:04.913Z,0.00
2019-03-15T01:01:04.875Z,0.00
2019-03-15T01:02:04.837Z,0.00
2019-03-15T01:03:04.808Z,0.00
2019-03-15T01:04:04.963Z,0.00
2019-03-15T01:05:04.736Z,0.00
2019-03-15T01:06:04.693Z,0.00
2019-03-15T01:07:04.660Z,0.00
2019-03-15T01:08:04.619Z,0.00
2019-03-15T01:09:04.579Z,0.00
2019-03-15T01:10:04.554Z,0.00
2019-03-15T01:11:04.519Z,0.00
2019-03-15T01:12:04.484Z,0.00
2019-03-15T01:13:04.437Z,0.00
2019-03-15T01:14:04.406Z,0.00
2019-03-15T01:15:04.371Z,0.00
2019-03-15T01:16:04.334Z,0.00
2019-03-15T01:17:04.289Z,0.00
2019-03-15T01:18:04.260Z,0.00
2019-03-15T01:19:04.230Z,0.00
2019-03-15T01:20:04.197Z,0.00
2019-03-15T01:21:04.146Z,0.00
2019-03-15T01:22:04.134Z,0.00
2019-03-15T01:23:04.077Z,0.00
2019-03-15T01:24:04.047Z,0.00
2019-03-15T01:25:04.167Z,0.00
2019-03-15T01:26:03.972Z,0.00
2019-03-15T01:27:03.928Z,0.00
2019-03-15T01:28:03.892Z,0.00
2019-03-15T01:29:03.867Z,0.00
2019-03-15T01:30:03.817Z,0.00
2019-03-15T01:31:03.783Z,0.00
2019-03-15T01:32:03.755Z,0.00
2019-03-15T01:33:03.717Z,0.00
2019-03-15T01:34:03.687Z,0.00
2019-03-15T01:35:03.644Z,0.00
2019-03-15T01:36:03.606Z,0.00
2019-03-15T01:37:03.568Z,0.00
2019-03-15T01:38:03.538Z,0.00
2019-03-15T01:39:03.507Z,0.00
2019-03-15T01:40:03.461Z,0.00
2019-03-15T01:41:04.282Z,0.00
2019-03-15T01:42:03.392Z,0.00
2019-03-15T01:43:03.350Z,0.00
2019-03-15T01:44:03.616Z,0.00
2019-03-15T01:45:03.284Z,0.00
2019-03-15T01:46:03.249Z,0.00
2019-03-15T01:47:03.204Z,0.00
2019-03-15T01:48:03.188Z,0.00
2019-03-15T01:49:03.146Z,0.00
2019-03-15T01:50:03.147Z,0.00
2019-03-15T01:51:03.057Z,0.00
2019-03-15T01:52:03.033Z,0.00
2019-03-15T01:53:02.987Z,0.00
2019-03-15T01:54:02.958Z,0.00
2019-03-15T01:55:02.923Z,0.00
2019-03-15T01:56:02.884Z,0.00
2019-03-15T01:57:02.852Z,0.00
2019-03-15T01:58:02.824Z,0.00
2019-03-15T01:59:02.781Z,0.00
2019-03-15T02:00:02.735Z,0.00
2019-03-15T02:01:02.697Z,0.00
2019-03-15T02:02:02.664Z,0.00
2019-03-15T02:03:02.667Z,0.00
2019-03-15T02:04:02.594Z,0.00
2019-03-15T02:05:02.569Z,0.00
2019-03-15T02:06:02.518Z,0.00
2019-03-15T02:07:02.479Z,0.00
2019-03-15T02:08:02.444Z,0.00
2019-03-15T02:09:02.394Z,0.00
2019-03-15T02:10:02.375Z,0.00
2019-03-15T02:11:03.205Z,0.00
2019-03-15T02:12:02.301Z,0.00
2019-03-15T02:13:02.266Z,0.00
2019-03-15T02:14:02.233Z,0.00
2019-03-15T02:15:02.192Z,0.00
2019-03-15T02:16:02.154Z,0.00
2019-03-15T02:17:02.117Z,0.00
2019-03-15T02:18:02.083Z,0.00
2019-03-15T02:19:02.042Z,0.00
2019-03-15T02:20:02.006Z,0.00
2019-03-15T02:21:01.971Z,0.00
2019-03-15T02:22:01.943Z,0.00
2019-03-15T02:23:01.895Z,0.00
2019-03-15T02:24:01.860Z,0.00
2019-03-15T02:25:01.821Z,0.00
2019-03-15T02:26:01.788Z,0.00
2019-03-15T02:27:01.754Z,0.00
2019-03-15T02:28:01.715Z,0.00
2019-03-15T02:29:01.678Z,0.00
2019-03-15T02:30:01.681Z,0.00
2019-03-15T02:31:01.606Z,0.00
2019-03-15T02:32:01.577Z,0.00
2019-03-15T02:33:01.542Z,0.00
2019-03-15T02:34:01.501Z,0.00
2019-03-15T02:35:01.488Z,0.00
2019-03-15T02:36:01.435Z,0.00
2019-03-15T02:37:01.385Z,0.00
2019-03-15T02:38:01.358Z,0.00
2019-03-15T02:39:01.316Z,0.00
2019-03-15T02:40:01.282Z,0.00
2019-03-15T02:41:01.261Z,0.00
2019-03-15T02:42:01.216Z,0.00
2019-03-15T02:43:01.187Z,0.00
2019-03-15T02:44:01.154Z,0.00
2019-03-15T02:45:01.107Z,0.00
2019-03-15T02:46:01.061Z,0.00
2019-03-15T02:47:01.038Z,0.00
2019-03-15T02:48:00.986Z,0.00
2019-03-15T02:49:00.962Z,0.00
2019-03-15T02:50:01.791Z,0.00
2019-03-15T02:51:00.882Z,0.00
2019-03-15T02:52:00.851Z,0.00
2019-03-15T02:53:00.908Z,0.00
2019-03-15T02:54:00.981Z,0.00
2019-03-15T02:55:00.746Z,0.00
2019-03-15T02:56:00.711Z,0.00
2019-03-15T02:57:00.679Z,0.00
2019-03-15T02:58:01.991Z,0.00
2019-03-15T02:59:00.608Z,0.00
2019-03-15T03:00:00.571Z,0.00
2019-03-15T03:01:00.531Z,0.00
2019-03-15T03:02:00.809Z,0.00
2019-03-15T03:03:00.448Z,0.00
2019-03-15T03:04:00.411Z,0.00
2019-03-15T03:05:00.382Z,0.00
2019-03-15T03:06:01.277Z,0.00
2019-03-15T03:07:00.306Z,0.00
2019-03-15T03:08:00.274Z,0.00
2019-03-15T03:09:00.236Z,0.00
2019-03-15T03:10:01.650Z,0.00
2019-03-15T03:11:00.161Z,0.00
2019-03-15T03:12:00.132Z,0.00
2019-03-15T03:13:00.120Z,0.00
2019-03-15T03:14:00.046Z,0.00
2019-03-15T03:15:00.019Z,0.00
2019-03-15T03:15:59.973Z,0.00
2019-03-15T03:16:59.949Z,0.00
2019-03-15T03:17:59.907Z,0.00
2019-03-15T03:19:01.219Z,0.00
2019-03-15T03:19:59.835Z,0.00
2019-03-15T03:20:59.798Z,0.00
2019-03-15T03:21:59.758Z,0.00
2019-03-15T03:22:59.732Z,0.00
2019-03-15T03:23:59.690Z,0.00
2019-03-15T03:24:59.654Z,0.00
2019-03-15T03:25:59.612Z,0.00
2019-03-15T03:26:59.595Z,0.00
2019-03-15T03:28:01.143Z,0.00
2019-03-15T03:28:59.510Z,0.00
2019-03-15T03:29:59.480Z,0.00
2019-03-15T03:30:59.462Z,0.00
2019-03-15T03:31:59.403Z,0.00
2019-03-15T03:32:59.409Z,0.00
2019-03-15T03:33:59.335Z,0.00
2019-03-15T03:34:59.290Z,0.00
2019-03-15T03:35:59.249Z,0.00
2019-03-15T03:36:59.221Z,0.00
2019-03-15T03:37:59.192Z,0.00
2019-03-15T03:38:59.159Z,0.00
2019-03-15T03:39:59.145Z,0.00
2019-03-15T03:40:59.074Z,0.00
2019-03-15T03:41:59.040Z,0.00
2019-03-15T03:42:58.998Z,0.00
2019-03-15T03:43:58.964Z,0.00
2019-03-15T03:44:58.940Z,0.00
2019-03-15T03:45:58.890Z,0.00
2019-03-15T03:46:58.859Z,0.00
2019-03-15T03:47:59.001Z,0.00
2019-03-15T03:48:58.785Z,0.00
2019-03-15T03:49:58.754Z,0.00
2019-03-15T03:51:00.216Z,0.00
2019-03-15T03:51:58.674Z,0.00
2019-03-15T03:52:58.647Z,0.00
2019-03-15T03:53:58.606Z,0.00
2019-03-15T03:54:58.564Z,0.00
2019-03-15T03:55:58.539Z,0.00
2019-03-15T03:56:58.506Z,0.00
2019-03-15T03:57:58.465Z,0.00
2019-03-15T03:58:58.423Z,0.00
2019-03-15T03:59:58.391Z,0.00
2019-03-15T04:00:58.351Z,0.00
2019-03-15T04:01:58.321Z,0.00
2019-03-15T04:02:58.284Z,0.00
2019-03-15T04:03:58.244Z,0.00
2019-03-15T04:04:58.211Z,0.00
2019-03-15T04:05:58.170Z,0.00
2019-03-15T04:06:58.135Z,0.00
2019-03-15T04:07:58.105Z,0.00
2019-03-15T04:08:58.080Z,0.00
2019-03-15T04:09:58.030Z,0.00
2019-03-15T04:10:58.002Z,0.00
2019-03-15T04:11:57.957Z,0.00
2019-03-15T04:12:57.919Z,0.00
2019-03-15T04:13:57.877Z,0.00
2019-03-15T04:14:57.847Z,0.00
2019-03-15T04:15:57.809Z,0.00
2019-03-15T04:16:57.777Z,0.00
2019-03-15T04:17:57.736Z,0.00
2019-03-15T04:18:57.707Z,0.00
2019-03-15T04:19:57.668Z,0.00
2019-03-15T04:20:57.642Z,0.00
2019-03-15T04:21:57.595Z,0.00
2019-03-15T04:22:57.562Z,0.00
2019-03-15T04:23:57.540Z,0.00
2019-03-15T04:24:57.488Z,0.00
2019-03-15T04:25:57.458Z,0.00
2019-03-15T04:26:57.412Z,0.00
2019-03-15T04:27:57.388Z,0.00
2019-03-15T04:28:57.359Z,0.00
2019-03-15T04:29:57.316Z,0.00
2019-03-15T04:30:57.275Z,0.00
2019-03-15T04:31:57.243Z,0.00
2019-03-15T04:32:57.211Z,0.00
2019-03-15T04:33:57.162Z,0.00
2019-03-15T04:34:57.126Z,0.00
2019-03-15T04:35:57.092Z,0.00
2019-03-15T04:36:57.056Z,0.00
2019-03-15T04:37:57.023Z,0.00
2019-03-15T04:38:56.989Z,0.00
2019-03-15T04:39:56.952Z,0.00
2019-03-15T04:40:56.909Z,0.00
2019-03-15T04:41:56.881Z,0.00
2019-03-15T04:42:56.836Z,0.00
2019-03-15T04:43:56.822Z,0.00
2019-03-15T04:44:56.769Z,0.00
2019-03-15T04:45:56.742Z,0.00
2019-03-15T04:46:56.703Z,0.00
2019-03-15T04:47:56.653Z,0.00
2019-03-15T04:48:56.627Z,0.00
2019-03-15T04:49:56.587Z,0.00
2019-03-15T04:50:56.548Z,0.00
2019-03-15T04:51:56.512Z,0.00
2019-03-15T04:52:56.462Z,0.00
2019-03-15T04:53:56.440Z,0.00
2019-03-15T04:54:56.407Z,0.00
2019-03-15T04:55:56.358Z,0.00
2019-03-15T04:56:56.323Z,0.00
2019-03-15T04:57:56.284Z,0.00
2019-03-15T04:58:56.259Z,0.00
2019-03-15T04:59:56.233Z,0.00
2019-03-15T05:00:56.189Z,0.00
2019-03-15T05:01:56.147Z,0.00
2019-03-15T05:02:56.113Z,0.00
2019-03-15T05:03:56.166Z,0.00
2019-03-15T05:04:56.038Z,0.00
2019-03-15T05:06:02.972Z,0.00
2019-03-15T05:06:55.960Z,0.00
2019-03-15T05:07:55.934Z,0.00
2019-03-15T05:08:55.897Z,0.00
2019-03-15T05:09:55.869Z,0.00
2019-03-15T05:10:55.818Z,0.00
2019-03-15T05:11:55.786Z,0.00
2019-03-15T05:12:55.750Z,0.00
2019-03-15T05:13:58.704Z,0.00
2019-03-15T05:14:55.675Z,0.00
2019-03-15T05:15:55.639Z,0.00
2019-03-15T05:16:55.644Z,0.00
2019-03-15T05:17:55.564Z,0.00
2019-03-15T05:18:55.529Z,0.00
2019-03-15T05:19:55.499Z,0.00
2019-03-15T05:20:55.454Z,0.00
2019-03-15T05:21:55.420Z,0.00
2019-03-15T05:22:55.381Z,0.00
2019-03-15T05:23:55.345Z,0.00
2019-03-15T05:24:55.308Z,0.00
2019-03-15T05:25:55.276Z,0.00
2019-03-15T05:26:55.226Z,0.00
2019-03-15T05:27:55.203Z,0.00
2019-03-15T05:28:55.166Z,0.00
2019-03-15T05:29:55.129Z,0.00
2019-03-15T05:30:55.098Z,4.00
2019-03-15T05:31:55.058Z,4.00
2019-03-15T05:32:55.023Z,4.00
2019-03-15T05:33:54.981Z,0.00
2019-03-15T05:34:54.945Z,4.00
2019-03-15T05:35:54.906Z,4.00
2019-03-15T05:36:54.875Z,4.00
2019-03-15T05:37:54.832Z,4.00
2019-03-15T05:38:54.800Z,8.00
2019-03-15T05:39:54.770Z,8.00
2019-03-15T05:40:54.744Z,8.00
2019-03-15T05:41:54.696Z,12.00
2019-03-15T05:42:54.655Z,8.00
2019-03-15T05:43:54.619Z,12.00
2019-03-15T05:44:54.582Z,12.00
2019-03-15T05:45:54.544Z,16.00
2019-03-15T05:46:54.511Z,16.00
2019-03-15T05:47:54.483Z,20.00
2019-03-15T05:48:54.440Z,20.00
2019-03-15T05:49:54.399Z,24.00
2019-03-15T05:50:54.357Z,28.00
2019-03-15T05:51:54.361Z,32.00
2019-03-15T05:52:54.297Z,36.00
2019-03-15T05:53:54.266Z,40.00
2019-03-15T05:54:54.215Z,44.00
2019-03-15T05:55:54.185Z,44.00
2019-03-15T05:56:54.153Z,52.00
2019-03-15T05:57:54.119Z,56.00
2019-03-15T05:58:54.080Z,68.00
2019-03-15T05:59:54.058Z,72.00
2019-03-15T06:00:54.000Z,80.00
2019-03-15T06:01:53.976Z,88.00
2019-03-15T06:02:53.936Z,96.00
2019-03-15T06:03:53.896Z,96.00
2019-03-15T06:04:53.852Z,100.00
2019-03-15T06:05:53.821Z,116.00
2019-03-15T06:06:53.787Z,112.00
2019-03-15T06:07:53.743Z,120.00
2019-03-15T06:08:53.721Z,124.00
2019-03-15T06:09:53.672Z,132.00
2019-03-15T06:10:54.780Z,140.00
2019-03-15T06:11:53.598Z,144.00
2019-03-15T06:12:53.569Z,160.00
2019-03-15T06:13:53.541Z,160.00
2019-03-15T06:14:53.496Z,168.00
2019-03-15T06:15:53.455Z,176.00
2019-03-15T06:16:53.434Z,188.00
2019-03-15T06:17:53.383Z,184.00
2019-03-15T06:18:53.348Z,188.00
2019-03-15T06:19:53.317Z,196.00
2019-03-15T06:20:53.282Z,200.00
2019-03-15T06:21:53.243Z,208.00
2019-03-15T06:22:53.204Z,216.00
2019-03-15T06:23:53.159Z,224.00
2019-03-15T06:24:53.137Z,228.00
2019-03-15T06:25:53.102Z,236.00
2019-03-15T06:26:53.057Z,240.00
2019-03-15T06:27:53.020Z,240.00
2019-03-15T06:28:52.988Z,244.00
2019-03-15T06:29:52.968Z,244.00
2019-03-15T06:30:52.907Z,244.00
2019-03-15T06:31:52.875Z,248.00
2019-03-15T06:32:52.849Z,252.00
2019-03-15T06:33:52.803Z,252.00
2019-03-15T06:34:52.773Z,264.00
2019-03-15T06:35:52.734Z,256.00
2019-03-15T06:36:52.698Z,264.00
2019-03-15T06:37:52.659Z,272.00
2019-03-15T06:38:52.620Z,276.00
2019-03-15T06:39:52.604Z,272.00
2019-03-15T06:40:52.554Z,276.00
2019-03-15T06:41:53.654Z,296.00
2019-03-15T06:42:52.479Z,296.00
2019-03-15T06:43:52.440Z,316.00
2019-03-15T06:44:57.778Z,332.00
2019-03-15T06:45:52.370Z,340.00
2019-03-15T06:46:52.335Z,336.00
2019-03-15T06:47:52.303Z,328.00
2019-03-15T06:48:52.261Z,312.00
2019-03-15T06:49:52.219Z,300.00
2019-03-15T06:50:52.207Z,304.00
2019-03-15T06:51:52.151Z,304.00
2019-03-15T06:52:52.127Z,332.00
2019-03-15T06:53:52.081Z,336.00
2019-03-15T06:54:52.054Z,352.00
2019-03-15T06:55:52.010Z,376.00
2019-03-15T06:56:51.968Z,388.00
2019-03-15T06:57:51.940Z,380.00
2019-03-15T06:58:51.899Z,396.00
2019-03-15T06:59:51.868Z,444.00
2019-03-15T07:00:54.609Z,360.00
2019-03-15T07:01:51.796Z,316.00
2019-03-15T07:02:51.749Z,408.00
2019-03-15T07:03:51.714Z,576.00
2019-03-15T07:04:51.690Z,468.00
2019-03-15T07:05:51.655Z,388.00
2019-03-15T07:06:51.619Z,396.00
2019-03-15T07:07:51.580Z,464.00
2019-03-15T07:08:51.550Z,492.00
2019-03-15T07:09:51.510Z,480.00
2019-03-15T07:10:51.468Z,472.00
2019-03-15T07:11:51.439Z,456.00
2019-03-15T07:12:51.394Z,500.00
2019-03-15T07:13:51.365Z,588.00
2019-03-15T07:14:51.327Z,548.00
2019-03-15T07:15:51.302Z,632.00
2019-03-15T07:16:51.259Z,584.00
2019-03-15T07:17:51.220Z,560.00
2019-03-15T07:18:51.180Z,520.00
2019-03-15T07:19:51.151Z,520.00
2019-03-15T07:20:51.115Z,504.00
2019-03-15T07:21:51.075Z,480.00
2019-03-15T07:22:51.033Z,556.00
2019-03-15T07:23:50.999Z,548.00
2019-03-15T07:24:50.970Z,564.00
2019-03-15T07:25:50.928Z,564.00
2019-03-15T07:26:50.896Z,604.00
2019-03-15T07:27:50.850Z,616.00
2019-03-15T07:28:50.826Z,640.00
2019-03-15T07:29:50.783Z,592.00
2019-03-15T07:30:50.742Z,596.00
2019-03-15T07:31:50.713Z,592.00
2019-03-15T07:32:50.672Z,600.00
2019-03-15T07:33:50.637Z,664.00
2019-03-15T07:34:50.592Z,616.00
2019-03-15T07:35:50.566Z,624.00
2019-03-15T07:36:51.602Z,652.00
2019-03-15T07:37:50.493Z,636.00
2019-03-15T07:38:50.453Z,624.00
2019-03-15T07:39:50.421Z,648.00
2019-03-15T07:40:50.387Z,656.00
2019-03-15T07:41:50.355Z,704.00
2019-03-15T07:42:50.319Z,740.00
2019-03-15T07:43:50.277Z,756.00
2019-03-15T07:44:50.247Z,780.00
2019-03-15T07:45:50.213Z,768.00
2019-03-15T07:46:51.134Z,852.00
2019-03-15T07:47:50.138Z,804.00
2019-03-15T07:48:50.096Z,828.00
2019-03-15T07:49:52.832Z,840.00
2019-03-15T07:50:50.043Z,836.00
2019-03-15T07:51:49.994Z,788.00
2019-03-15T07:52:49.964Z,828.00
2019-03-15T07:53:49.924Z,888.00
2019-03-15T07:54:49.887Z,932.00
2019-03-15T07:55:49.853Z,956.00
2019-03-15T07:56:49.813Z,932.00
2019-03-15T07:57:49.779Z,992.00
2019-03-15T07:58:49.749Z,1000.00
2019-03-15T07:59:49.708Z,1028.00
2019-03-15T08:00:49.670Z,908.00
2019-03-15T08:01:52.676Z,1044.00
2019-03-15T08:02:49.606Z,1072.00
2019-03-15T08:03:49.575Z,1248.00
2019-03-15T08:04:49.528Z,1308.00
2019-03-15T08:05:49.494Z,1312.00
2019-03-15T08:06:49.459Z,1364.00
2019-03-15T08:07:49.441Z,1396.00
2019-03-15T08:08:49.382Z,1228.00
2019-03-15T08:09:50.714Z,1348.00
2019-03-15T08:10:49.305Z,1424.00
2019-03-15T08:11:49.282Z,1432.00
2019-03-15T08:12:49.842Z,1296.00
2019-03-15T08:13:49.213Z,1176.00
2019-03-15T08:14:49.180Z,1272.00
2019-03-15T08:15:49.140Z,1264.00
2019-03-15T08:16:49.098Z,1348.00
2019-03-15T08:17:49.087Z,1264.00
2019-03-15T08:18:49.026Z,1300.00
2019-03-15T08:19:48.999Z,1380.00
2019-03-15T08:20:48.963Z,1388.00
2019-03-15T08:21:48.928Z,1352.00
2019-03-15T08:22:48.890Z,1352.00
2019-03-15T08:23:48.851Z,1316.00
2019-03-15T08:24:51.792Z,1408.00
2019-03-15T08:25:50.336Z,1472.00
2019-03-15T08:26:48.755Z,1620.00
2019-03-15T08:27:48.715Z,1624.00
2019-03-15T08:28:48.680Z,1732.00
2019-03-15T08:29:48.636Z,1772.00
2019-03-15T08:30:48.611Z,1944.00
2019-03-15T08:31:48.576Z,1984.00
2019-03-15T08:32:48.531Z,1892.00
2019-03-15T08:33:48.504Z,2008.00
2019-03-15T08:34:48.463Z,2224.00
2019-03-15T08:35:48.436Z,2348.00
2019-03-15T08:36:48.399Z,2436.00
2019-03-15T08:37:48.354Z,2140.00
2019-03-15T08:38:48.331Z,2256.00
2019-03-15T08:39:48.291Z,2464.00
2019-03-15T08:40:48.252Z,2344.00
2019-03-15T08:41:48.221Z,2388.00
2019-03-15T08:42:48.196Z,2408.00
2019-03-15T08:43:48.152Z,2512.00
2019-03-15T08:44:48.111Z,2240.00
2019-03-15T08:45:48.085Z,2284.00
2019-03-15T08:46:48.060Z,2360.00
2019-03-15T08:47:48.011Z,2452.00
2019-03-15T08:48:47.979Z,2464.00
2019-03-15T08:49:47.932Z,2332.00
2019-03-15T08:50:47.897Z,2320.00
2019-03-15T08:51:47.868Z,1988.00
2019-03-15T08:52:47.830Z,1832.00
2019-03-15T08:53:47.801Z,1756.00
2019-03-15T08:54:47.770Z,1816.00
2019-03-15T08:55:47.730Z,1880.00
2019-03-15T08:56:47.701Z,2032.00
2019-03-15T08:57:47.651Z,2076.00
2019-03-15T08:58:47.615Z,2148.00
2019-03-15T08:59:54.223Z,2120.00
2019-03-15T09:00:47.555Z,2040.00
2019-03-15T09:01:47.518Z,2180.00
2019-03-15T09:02:47.489Z,2252.00
2019-03-15T09:03:47.455Z,2116.00
2019-03-15T09:04:50.303Z,2084.00
2019-03-15T09:05:47.373Z,2068.00
2019-03-15T09:06:47.343Z,2024.00
2019-03-15T09:07:47.315Z,1824.00
2019-03-15T09:08:47.277Z,1904.00
2019-03-15T09:09:47.237Z,1744.00
2019-03-15T09:10:47.215Z,1700.00
2019-03-15T09:11:47.172Z,1764.00
2019-03-15T09:12:47.142Z,1960.00
2019-03-15T09:13:49.220Z,1808.00
2019-03-15T09:14:47.086Z,1980.00
2019-03-15T09:15:47.034Z,2364.00
2019-03-15T09:16:47.002Z,2620.00
2019-03-15T09:17:46.973Z,2360.00
2019-03-15T09:18:46.932Z,2188.00
2019-03-15T09:19:46.892Z,2020.00
2019-03-15T09:20:46.862Z,2172.00
2019-03-15T09:21:46.835Z,2328.00
2019-03-15T09:22:46.884Z,2696.00
2019-03-15T09:23:46.758Z,3012.00
2019-03-15T09:24:46.721Z,3064.00
2019-03-15T09:25:46.687Z,2908.00
2019-03-15T09:26:46.647Z,2752.00
2019-03-15T09:27:46.613Z,3124.00
2019-03-15T09:28:46.605Z,2988.00
2019-03-15T09:29:46.553Z,2612.00
2019-03-15T09:30:46.523Z,2320.00
2019-03-15T09:31:47.961Z,2148.00
2019-03-15T09:32:46.457Z,2432.00
2019-03-15T09:33:46.408Z,2208.00
2019-03-15T09:34:46.379Z,2412.00
2019-03-15T09:35:46.389Z,2168.00
2019-03-15T09:36:50.463Z,2392.00
2019-03-15T09:37:47.719Z,2424.00
2019-03-15T09:38:46.249Z,2424.00
2019-03-15T09:39:46.203Z,2608.00
2019-03-15T09:40:46.175Z,2968.00
2019-03-15T09:41:46.153Z,3016.00
2019-03-15T09:42:46.111Z,3044.00
2019-03-15T09:43:46.079Z,2984.00
2019-03-15T09:44:46.044Z,3060.00
2019-03-15T09:45:46.009Z,2876.00
2019-03-15T09:46:45.968Z,2952.00
2019-03-15T09:47:45.939Z,3032.00
2019-03-15T09:48:45.928Z,2476.00
2019-03-15T09:49:45.875Z,2524.00
2019-03-15T09:50:51.201Z,3292.00
2019-03-15T09:51:45.840Z,3480.00
2019-03-15T09:52:45.776Z,3656.00
2019-03-15T09:53:45.739Z,2940.00
2019-03-15T09:54:45.698Z,2796.00
2019-03-15T09:55:45.663Z,2752.00
2019-03-15T09:56:45.630Z,2660.00
2019-03-15T09:57:45.595Z,2668.00
2019-03-15T09:58:45.571Z,2416.00
2019-03-15T09:59:45.534Z,3188.00
2019-03-15T10:00:45.499Z,3028.00
2019-03-15T10:01:45.462Z,2332.00
2019-03-15T10:02:45.426Z,2960.00
2019-03-15T10:03:45.404Z,2984.00
2019-03-15T10:04:45.367Z,3112.00
2019-03-15T10:05:45.426Z,2940.00
2019-03-15T10:06:45.304Z,3292.00
2019-03-15T10:07:45.331Z,3272.00
2019-03-15T10:08:45.225Z,3212.00
2019-03-15T10:09:46.384Z,3124.00
2019-03-15T10:10:45.176Z,3248.00
2019-03-15T10:11:45.121Z,3408.00
2019-03-15T10:12:45.092Z,3512.00
2019-03-15T10:13:45.067Z,3736.00
2019-03-15T10:14:45.017Z,3420.00
2019-03-15T10:15:45.005Z,3236.00
2019-03-15T10:16:44.957Z,3160.00
2019-03-15T10:17:44.933Z,3136.00
2019-03-15T10:18:44.891Z,3376.00
2019-03-15T10:19:44.845Z,3016.00
2019-03-15T10:20:45.639Z,2812.00
2019-03-15T10:21:44.776Z,2828.00
2019-03-15T10:22:44.771Z,2364.00
2019-03-15T10:23:44.730Z,2624.00
2019-03-15T10:24:44.692Z,2544.00
2019-03-15T10:25:47.546Z,2876.00
2019-03-15T10:26:44.621Z,2704.00
2019-03-15T10:27:44.581Z,2492.00
2019-03-15T10:28:44.548Z,2476.00
2019-03-15T10:29:44.522Z,2784.00
2019-03-15T10:30:44.493Z,2308.00
2019-03-15T10:31:44.460Z,2352.00
2019-03-15T10:32:44.413Z,2256.00
2019-03-15T10:33:50.318Z,2260.00
2019-03-15T10:34:44.354Z,2196.00
2019-03-15T10:35:44.312Z,2928.00
2019-03-15T10:36:44.283Z,3092.00
2019-03-15T10:37:44.245Z,3420.00
2019-03-15T10:38:44.211Z,3188.00
2019-03-15T10:39:44.192Z,4132.00
2019-03-15T10:40:44.147Z,3744.00
2019-03-15T10:41:44.113Z,3304.00
2019-03-15T10:42:44.087Z,3384.00
2019-03-15T10:43:44.039Z,3324.00
2019-03-15T10:44:44.013Z,2820.00
2019-03-15T10:45:43.982Z,2588.00
2019-03-15T10:46:43.948Z,3172.00
2019-03-15T10:47:43.910Z,3496.00
2019-03-15T10:48:43.878Z,4676.00
2019-03-15T10:49:43.843Z,4328.00
2019-03-15T10:50:43.812Z,4584.00
2019-03-15T10:51:43.846Z,5324.00
2019-03-15T10:52:43.759Z,4960.00
2019-03-15T10:53:43.709Z,5064.00
2019-03-15T10:54:43.677Z,5284.00
2019-03-15T10:55:43.648Z,4588.00
2019-03-15T10:56:43.618Z,4508.00
2019-03-15T10:57:43.586Z,5820.00
2019-03-15T10:58:43.543Z,5068.00
2019-03-15T10:59:43.513Z,5076.00
2019-03-15T11:00:43.473Z,4512.00
2019-03-15T11:01:43.442Z,4524.00
2019-03-15T11:02:43.419Z,3964.00
2019-03-15T11:03:43.369Z,3632.00
2019-03-15T11:04:43.347Z,4244.00
2019-03-15T11:05:43.310Z,3920.00
2019-03-15T11:06:43.286Z,4336.00
2019-03-15T11:07:43.243Z,4324.00
2019-03-15T11:08:43.214Z,4000.00
2019-03-15T11:09:43.180Z,5104.00
2019-03-15T11:10:43.140Z,3792.00
2019-03-15T11:11:43.108Z,4212.00
2019-03-15T11:12:43.106Z,2984.00
2019-03-15T11:13:43.040Z,3064.00
2019-03-15T11:14:43.019Z,2468.00
2019-03-15T11:15:42.976Z,2456.00
2019-03-15T11:16:42.944Z,2836.00
2019-03-15T11:17:42.913Z,3560.00
2019-03-15T11:18:42.880Z,3788.00
2019-03-15T11:19:42.842Z,2736.00
2019-03-15T11:20:42.809Z,2732.00
2019-03-15T11:21:42.784Z,3212.00
2019-03-15T11:22:42.744Z,3220.00
2019-03-15T11:23:42.706Z,2976.00
2019-03-15T11:24:43.953Z,3148.00
2019-03-15T11:25:42.641Z,3624.00
2019-03-15T11:26:42.619Z,2856.00
2019-03-15T11:27:42.578Z,2624.00
2019-03-15T11:28:42.540Z,2672.00
2019-03-15T11:29:42.516Z,2568.00
2019-03-15T11:30:42.474Z,2492.00
2019-03-15T11:31:42.444Z,3180.00
2019-03-15T11:32:42.406Z,3704.00
2019-03-15T11:33:42.379Z,3860.00
2019-03-15T11:34:42.340Z,2960.00
2019-03-15T11:35:42.305Z,2432.00
2019-03-15T11:36:42.275Z,2856.00
2019-03-15T11:37:42.235Z,3992.00
2019-03-15T11:38:42.208Z,3832.00
2019-03-15T11:39:42.170Z,4372.00
2019-03-15T11:40:42.137Z,4728.00
2019-03-15T11:41:42.109Z,4080.00
2019-03-15T11:42:42.073Z,4104.00
2019-03-15T11:43:42.060Z,5436.00
2019-03-15T11:44:42.002Z,6140.00
2019-03-15T11:45:41.971Z,5540.00
2019-03-15T11:46:42.036Z,5540.00
2019-03-15T11:48:01.088Z,4496.00
2019-03-15T11:48:41.871Z,4956.00
2019-03-15T11:49:41.841Z,3968.00
2019-03-15T11:50:41.815Z,4108.00
2019-03-15T11:51:42.622Z,3456.00
2019-03-15T11:52:42.318Z,3480.00
2019-03-15T11:53:41.702Z,3548.00
2019-03-15T11:54:41.675Z,3448.00
2019-03-15T11:55:41.641Z,3048.00
2019-03-15T11:56:41.609Z,2672.00
2019-03-15T11:57:41.577Z,3520.00
2019-03-15T11:58:41.537Z,4504.00
2019-03-15T11:59:41.501Z,3800.00
2019-03-15T12:00:41.476Z,3708.00
2019-03-15T12:01:41.457Z,3504.00
2019-03-15T12:02:41.406Z,3048.00
2019-03-15T12:03:52.439Z,2416.00
2019-03-15T12:04:41.338Z,2384.00
2019-03-15T12:05:41.312Z,1904.00
2019-03-15T12:06:41.354Z,1988.00
2019-03-15T12:07:41.236Z,2008.00
2019-03-15T12:08:41.211Z,2416.00
2019-03-15T12:09:41.259Z,2640.00
2019-03-15T12:10:41.141Z,3224.00
2019-03-15T12:11:41.112Z,3320.00
2019-03-15T12:12:41.076Z,3352.00
2019-03-15T12:13:41.037Z,3896.00
2019-03-15T12:14:41.508Z,4560.00
2019-03-15T12:15:40.969Z,4932.00
2019-03-15T12:16:40.938Z,3588.00
2019-03-15T12:17:40.905Z,3516.00
2019-03-15T12:18:40.881Z,4456.00
2019-03-15T12:19:40.845Z,3856.00
2019-03-15T12:20:40.809Z,4328.00
2019-03-15T12:21:40.788Z,3372.00
2019-03-15T12:22:40.734Z,3468.00
2019-03-15T12:23:40.703Z,3424.00
2019-03-15T12:24:40.672Z,3476.00
2019-03-15T12:25:40.634Z,3788.00
2019-03-15T12:26:40.900Z,3644.00
2019-03-15T12:27:40.566Z,3736.00
2019-03-15T12:28:40.544Z,3688.00
2019-03-15T12:29:40.502Z,4304.00
2019-03-15T12:30:43.013Z,4580.00
2019-03-15T12:31:40.439Z,3832.00
2019-03-15T12:32:40.408Z,4640.00
2019-03-15T12:33:40.373Z,4492.00
2019-03-15T12:34:40.338Z,5428.00
2019-03-15T12:35:40.310Z,6012.00
2019-03-15T12:36:40.283Z,6604.00
2019-03-15T12:37:40.238Z,6860.00
2019-03-15T12:38:40.214Z,7564.00
2019-03-15T12:39:40.178Z,6716.00
2019-03-15T12:40:40.133Z,8868.00